Time;durP1;ratioP1;P1;durP2;ratioP2;P2;SDS_P1;SDS_P2;PMS_P1;PMS_P2;Temp;Humidity;BMP_temperature;BMP_pressure;BME280_temperature;BME280_humidity;BME280_pressure;Samples;Min_cycle;Max_cycle;Signal;HPM_P1;HPM_P2
2023/09/29 00:01:27;;;;;;;7.70;4.90;;;17.80;99.90;;;;;;5040276;28;20263;-84
2023/09/29 00:03:54;;;;;;;10.00;5.60;;;17.90;99.90;;;;;;5024038;28;20362;-84
2023/09/29 00:06:23;;;;;;;8.85;5.15;;;17.80;99.90;;;;;;5029757;28;20385;-84
2023/09/29 00:08:50;;;;;;;12.45;5.03;;;17.80;99.90;;;;;;5040094;28;20304;-84
2023/09/29 00:11:17;;;;;;;10.55;5.00;;;17.80;99.90;;;;;;5022147;28;20219;-84
2023/09/29 00:13:44;;;;;;;9.15;5.78;;;17.80;99.90;;;;;;5026486;28;20228;-84
2023/09/29 00:16:11;;;;;;;10.75;5.43;;;17.80;99.90;;;;;;5043678;28;20224;-84
2023/09/29 00:18:38;;;;;;;9.40;5.35;;;17.80;99.90;;;;;;5021366;28;20303;-79
2023/09/29 00:21:06;;;;;;;8.57;5.15;;;17.80;99.90;;;;;;5017815;28;20221;-80
2023/09/29 00:23:35;;;;;;;7.63;5.30;;;17.80;99.90;;;;;;5034927;28;20766;-80
2023/09/29 00:26:02;;;;;;;9.00;5.47;;;17.80;99.90;;;;;;5037609;28;20300;-79
2023/09/29 00:28:28;;;;;;;11.65;5.50;;;17.80;99.90;;;;;;5034230;28;20228;-78
2023/09/29 00:30:55;;;;;;;8.17;5.40;;;17.70;99.90;;;;;;5040592;28;20216;-78
2023/09/29 00:33:22;;;;;;;8.73;5.30;;;17.70;99.90;;;;;;5038831;28;20293;-80
2023/09/29 00:35:49;;;;;;;6.60;4.85;;;17.70;99.90;;;;;;5039805;28;20216;-79
2023/09/29 00:38:15;;;;;;;8.63;5.10;;;17.70;99.90;;;;;;5035829;28;20689;-79
2023/09/29 00:40:43;;;;;;;7.25;5.22;;;17.80;99.90;;;;;;5023331;28;20251;-80
2023/09/29 00:43:11;;;;;;;9.13;5.18;;;17.70;99.90;;;;;;5044169;28;20253;-79
2023/09/29 00:45:38;;;;;;;10.83;5.60;;;17.80;99.90;;;;;;5040730;28;20226;-79
2023/09/29 00:48:08;;;;;;;9.80;5.32;;;17.70;99.90;;;;;;5024606;28;20795;-79
2023/09/29 00:50:37;;;;;;;13.95;5.78;;;17.80;99.90;;;;;;5024343;28;20216;-79
2023/09/29 00:53:09;;;;;;;9.32;5.63;;;17.70;99.90;;;;;;5025212;28;20834;-79
2023/09/29 00:55:37;;;;;;;9.13;5.55;;;17.70;99.90;;;;;;5040153;28;20231;-79
2023/09/29 00:58:06;;;;;;;9.10;5.40;;;17.80;99.90;;;;;;5022715;28;20228;-78
2023/09/29 01:00:36;;;;;;;7.72;5.45;;;17.70;99.90;;;;;;5033244;28;20244;-78
2023/09/29 01:03:05;;;;;;;8.80;5.72;;;17.70;99.90;;;;;;5020574;28;20278;-78
2023/09/29 01:05:37;;;;;;;7.55;5.72;;;17.70;99.90;;;;;;5023633;28;20797;-78
2023/09/29 01:08:09;;;;;;;7.90;5.60;;;17.70;99.90;;;;;;5040317;28;20303;-79
2023/09/29 01:10:36;;;;;;;11.18;5.68;;;17.70;99.90;;;;;;5045439;28;20224;-79
2023/09/29 01:13:05;;;;;;;10.05;6.05;;;17.70;99.90;;;;;;5026391;28;20303;-79
2023/09/29 01:15:33;;;;;;;8.00;5.53;;;17.70;99.90;;;;;;5026234;28;20265;-78
2023/09/29 01:18:01;;;;;;;9.70;5.85;;;17.70;99.90;;;;;;5043611;28;20228;-80
2023/09/29 01:20:30;;;;;;;10.70;5.82;;;17.70;99.90;;;;;;5027391;28;20224;-81
2023/09/29 01:22:57;;;;;;;6.82;5.20;;;17.70;99.90;;;;;;5025114;28;20305;-79
2023/09/29 01:25:25;;;;;;;7.55;5.38;;;17.60;99.90;;;;;;5028607;28;20307;-80
2023/09/29 01:27:54;;;;;;;9.93;5.68;;;17.60;99.90;;;;;;5026218;28;20231;-79
2023/09/29 01:30:21;;;;;;;9.95;5.80;;;17.60;99.90;;;;;;5026427;28;20246;-80
2023/09/29 01:32:49;;;;;;;10.73;6.10;;;17.60;99.90;;;;;;5025856;28;20315;-81
2023/09/29 01:35:17;;;;;;;7.87;5.13;;;17.60;99.90;;;;;;5026069;28;20216;-81
2023/09/29 01:37:46;;;;;;;9.10;5.72;;;17.60;99.90;;;;;;5042051;28;20220;-80
2023/09/29 01:40:14;;;;;;;8.70;5.53;;;17.60;99.90;;;;;;5027447;28;20216;-79
2023/09/29 01:42:43;;;;;;;8.68;5.50;;;17.60;99.90;;;;;;5027099;28;20216;-80
2023/09/29 01:45:11;;;;;;;6.22;5.15;;;17.60;99.90;;;;;;5042067;28;20307;-80
2023/09/29 01:47:38;;;;;;;10.52;5.03;;;17.60;99.90;;;;;;5022758;28;20282;-80
2023/09/29 01:50:07;;;;;;;8.35;5.57;;;17.60;99.90;;;;;;5042863;28;20224;-80
2023/09/29 01:52:34;;;;;;;7.90;5.10;;;17.60;99.90;;;;;;5027415;28;20630;-80
2023/09/29 01:55:03;;;;;;;7.13;5.27;;;17.70;99.90;;;;;;5041548;28;20233;-78
2023/09/29 01:57:30;;;;;;;10.52;5.78;;;17.60;99.90;;;;;;5039328;28;20287;-78
2023/09/29 01:59:58;;;;;;;7.88;4.95;;;17.60;99.90;;;;;;5027609;28;20224;-78
2023/09/29 02:02:24;;;;;;;9.25;5.07;;;17.60;99.90;;;;;;5040622;28;20324;-78
2023/09/29 02:04:52;;;;;;;8.77;5.13;;;17.60;99.90;;;;;;5043096;28;20894;-79
2023/09/29 02:07:19;;;;;;;8.60;5.05;;;17.60;99.90;;;;;;5041452;28;20228;-79
2023/09/29 02:09:46;;;;;;;8.07;5.20;;;17.60;99.90;;;;;;5024406;28;20802;-79
2023/09/29 02:12:13;;;;;;;6.82;5.57;;;17.60;99.90;;;;;;5041373;28;20252;-78
2023/09/29 02:14:40;;;;;;;6.93;5.10;;;17.60;99.90;;;;;;5023070;28;20208;-80
2023/09/29 02:17:09;;;;;;;7.78;5.15;;;17.60;99.90;;;;;;5025878;28;20239;-79
2023/09/29 02:19:36;;;;;;;6.18;4.40;;;17.60;99.90;;;;;;5024107;28;20235;-78
2023/09/29 02:22:04;;;;;;;8.00;5.03;;;17.60;99.90;;;;;;5025631;28;20220;-80
2023/09/29 02:24:31;;;;;;;10.00;5.15;;;17.50;99.90;;;;;;5041751;28;20303;-79
2023/09/29 02:26:58;;;;;;;8.18;5.10;;;17.60;99.90;;;;;;5024859;28;20302;-79
2023/09/29 02:29:25;;;;;;;6.68;4.70;;;17.50;99.90;;;;;;5042570;28;20251;-78
2023/09/29 02:31:52;;;;;;;9.38;5.47;;;17.50;99.90;;;;;;5024507;28;20227;-78
2023/09/29 02:34:20;;;;;;;8.43;5.45;;;17.50;99.90;;;;;;5042170;28;20625;-79
2023/09/29 02:36:47;;;;;;;7.43;4.78;;;17.40;99.90;;;;;;5022192;28;20708;-79
2023/09/29 02:39:13;;;;;;;10.35;5.20;;;17.40;99.90;;;;;;5019776;28;20909;-79
2023/09/29 02:41:40;;;;;;;6.80;5.13;;;17.40;99.90;;;;;;5039838;28;20381;-79
2023/09/29 02:44:07;;;;;;;7.93;5.15;;;17.40;99.90;;;;;;5026793;28;20224;-78
2023/09/29 02:46:34;;;;;;;8.77;5.78;;;17.40;99.90;;;;;;5021861;28;20860;-79
2023/09/29 02:49:03;;;;;;;8.15;5.38;;;17.40;99.90;;;;;;5018870;28;20315;-79
2023/09/29 02:51:31;;;;;;;9.75;5.72;;;17.30;99.90;;;;;;5026943;28;20220;-78
2023/09/29 02:53:58;;;;;;;10.13;5.18;;;17.30;99.90;;;;;;5046082;28;20318;-79
2023/09/29 02:56:25;;;;;;;7.07;5.30;;;17.20;99.90;;;;;;5038758;28;20228;-79
2023/09/29 02:58:54;;;;;;;6.40;5.40;;;17.20;99.90;;;;;;5036793;28;20246;-79
2023/09/29 03:01:22;;;;;;;6.85;5.43;;;17.20;99.90;;;;;;5025256;28;20224;-79
2023/09/29 03:03:54;;;;;;;10.18;6.28;;;17.20;99.90;;;;;;5042365;28;20220;-79
2023/09/29 03:06:21;;;;;;;7.77;5.60;;;17.10;99.90;;;;;;5041086;28;20232;-79
2023/09/29 03:08:54;;;;;;;7.93;5.45;;;17.10;99.90;;;;;;5040748;28;20919;-79
2023/09/29 03:11:21;;;;;;;10.07;6.07;;;17.10;99.90;;;;;;5026863;28;20339;-79
2023/09/29 03:13:48;;;;;;;9.73;6.17;;;17.10;99.90;;;;;;5038207;28;20231;-79
2023/09/29 03:16:18;;;;;;;8.30;5.63;;;17.10;99.90;;;;;;5024192;28;20285;-79
2023/09/29 03:18:46;;;;;;;8.13;5.97;;;17.10;99.90;;;;;;5024220;28;20216;-79
2023/09/29 03:21:15;;;;;;;8.52;5.75;;;17.10;99.90;;;;;;5028351;28;20299;-80
2023/09/29 03:23:45;;;;;;;7.73;5.57;;;17.10;99.90;;;;;;5015944;28;20227;-81
2023/09/29 03:26:16;;;;;;;7.35;5.68;;;17.10;99.90;;;;;;5034074;28;20635;-80
2023/09/29 03:28:43;;;;;;;10.23;6.03;;;17.10;99.90;;;;;;5036970;28;20231;-79
2023/09/29 03:31:10;;;;;;;8.48;5.93;;;17.10;99.90;;;;;;5035633;28;20902;-79
2023/09/29 03:33:38;;;;;;;9.67;6.00;;;17.10;99.90;;;;;;5038924;28;20238;-79
2023/09/29 03:36:05;;;;;;;8.10;5.70;;;17.10;99.90;;;;;;5040582;28;20247;-81
2023/09/29 03:38:32;;;;;;;8.83;6.20;;;17.10;99.90;;;;;;5040954;28;20277;-80
2023/09/29 03:40:59;;;;;;;8.38;6.50;;;17.00;99.90;;;;;;5017342;28;20231;-80
2023/09/29 03:43:27;;;;;;;8.48;6.55;;;17.00;99.90;;;;;;5032795;28;20548;-80
2023/09/29 03:45:54;;;;;;;8.52;6.10;;;17.00;99.90;;;;;;5038639;28;20303;-81
2023/09/29 03:48:21;;;;;;;8.23;6.30;;;17.00;99.90;;;;;;5016895;28;20232;-80
2023/09/29 03:50:49;;;;;;;13.13;7.30;;;16.90;99.90;;;;;;5035368;28;20328;-80
2023/09/29 03:53:17;;;;;;;8.20;6.85;;;16.80;99.90;;;;;;5037576;28;20232;-79
2023/09/29 03:55:44;;;;;;;9.97;7.03;;;16.80;99.90;;;;;;5038132;28;20223;-78
2023/09/29 03:58:11;;;;;;;9.37;6.80;;;16.70;99.90;;;;;;5039698;28;20317;-80
2023/09/29 04:00:39;;;;;;;10.30;7.37;;;16.70;99.90;;;;;;5039308;28;20702;-80
2023/09/29 04:03:07;;;;;;;8.90;7.43;;;16.60;99.90;;;;;;5038270;28;20232;-80
2023/09/29 04:05:34;;;;;;;14.83;7.73;;;16.60;99.90;;;;;;5039465;28;20291;-80
2023/09/29 04:08:01;;;;;;;9.90;7.47;;;16.50;99.90;;;;;;5035597;28;20303;-80
2023/09/29 04:10:28;;;;;;;10.43;7.17;;;16.50;99.90;;;;;;5035448;28;20231;-80
2023/09/29 04:12:55;;;;;;;8.70;7.20;;;16.50;99.90;;;;;;5034675;28;20228;-78
2023/09/29 04:15:23;;;;;;;9.37;7.70;;;16.40;99.90;;;;;;5036623;28;20224;-80
2023/09/29 04:17:51;;;;;;;12.13;8.50;;;16.40;99.90;;;;;;5037619;28;20596;-80
2023/09/29 04:20:18;;;;;;;10.70;8.00;;;16.30;99.90;;;;;;5034133;28;20807;-78
2023/09/29 04:22:46;;;;;;;9.73;8.07;;;16.30;99.90;;;;;;5021293;28;20666;-78
2023/09/29 04:25:13;;;;;;;10.17;8.40;;;16.30;99.90;;;;;;5036296;28;21053;-78
2023/09/29 04:27:40;;;;;;;10.10;8.03;;;16.30;99.90;;;;;;5034567;28;20208;-79
2023/09/29 04:30:09;;;;;;;9.53;8.47;;;16.30;99.90;;;;;;5017121;28;20226;-78
2023/09/29 04:32:36;;;;;;;11.87;8.53;;;16.30;99.90;;;;;;5036107;28;20219;-81
2023/09/29 04:35:06;;;;;;;11.80;8.23;;;16.30;99.90;;;;;;5034209;28;20228;-78
2023/09/29 04:37:33;;;;;;;11.90;9.10;;;16.30;99.90;;;;;;5036563;28;20232;-81
2023/09/29 04:39:59;;;;;;;10.90;8.43;;;16.30;99.90;;;;;;5038192;28;20219;-80
2023/09/29 04:42:26;;;;;;;11.57;8.57;;;16.30;99.90;;;;;;5035461;28;20235;-81
2023/09/29 04:44:53;;;;;;;11.33;8.03;;;16.20;99.90;;;;;;5036752;28;20635;-81
2023/09/29 04:47:20;;;;;;;11.83;8.13;;;16.30;99.90;;;;;;5037380;28;20281;-80
2023/09/29 04:49:49;;;;;;;10.43;8.50;;;16.30;99.90;;;;;;5017247;28;20303;-80
2023/09/29 04:52:17;;;;;;;10.73;8.73;;;16.30;99.90;;;;;;5033070;28;20232;-80
2023/09/29 04:54:44;;;;;;;12.70;8.50;;;16.30;99.90;;;;;;5036400;28;20220;-80
2023/09/29 04:57:11;;;;;;;9.30;8.30;;;16.30;99.90;;;;;;5035596;28;20227;-81
2023/09/29 04:59:38;;;;;;;10.70;8.13;;;16.30;99.90;;;;;;5040941;28;20230;-79
2023/09/29 05:02:05;;;;;;;11.63;9.10;;;16.30;99.90;;;;;;5040485;28;20220;-80
2023/09/29 05:04:32;;;;;;;10.37;8.47;;;16.30;99.90;;;;;;5037042;28;20224;-80
2023/09/29 05:06:59;;;;;;;12.83;8.20;;;16.20;99.90;;;;;;5039648;28;20219;-81
2023/09/29 05:09:27;;;;;;;11.63;8.23;;;16.20;99.90;;;;;;5031364;28;20234;-80
2023/09/29 05:11:54;;;;;;;10.30;8.37;;;16.20;99.90;;;;;;5039797;28;20228;-81
2023/09/29 05:14:20;;;;;;;11.40;8.73;;;16.20;99.90;;;;;;5022524;28;20245;-81
2023/09/29 05:16:49;;;;;;;10.03;9.03;;;16.20;99.90;;;;;;5024098;28;20304;-80
2023/09/29 05:19:16;;;;;;;10.10;8.67;;;16.10;99.90;;;;;;5039303;28;20224;-82
2023/09/29 05:21:43;;;;;;;13.00;9.17;;;16.10;99.90;;;;;;5028363;28;20870;-80
2023/09/29 05:24:09;;;;;;;11.63;8.80;;;16.10;99.90;;;;;;5038991;28;20980;-80
2023/09/29 05:26:38;;;;;;;12.83;9.00;;;16.10;99.90;;;;;;5020379;28;20234;-80
2023/09/29 05:29:05;;;;;;;10.33;8.83;;;16.10;99.90;;;;;;5023408;28;20224;-82
2023/09/29 05:31:32;;;;;;;10.73;9.23;;;16.10;99.90;;;;;;5036828;28;20343;-81
2023/09/29 05:33:58;;;;;;;11.93;9.57;;;16.10;99.90;;;;;;5041252;28;20246;-80
2023/09/29 05:36:27;;;;;;;11.20;9.10;;;16.10;99.90;;;;;;5015998;28;20217;-82
2023/09/29 05:38:53;;;;;;;10.47;8.77;;;16.10;99.90;;;;;;5038600;28;20285;-80
2023/09/29 05:41:20;;;;;;;12.10;9.50;;;16.00;99.90;;;;;;5034349;28;20232;-81
2023/09/29 05:43:48;;;;;;;9.77;8.57;;;16.10;99.90;;;;;;5016069;28;20291;-82
2023/09/29 05:46:15;;;;;;;12.97;9.03;;;16.00;99.90;;;;;;5019758;28;20235;-82
2023/09/29 05:48:42;;;;;;;12.00;9.30;;;16.10;99.90;;;;;;5016283;28;20887;-80
2023/09/29 05:51:09;;;;;;;13.50;10.27;;;16.10;99.90;;;;;;5024125;28;20253;-81
2023/09/29 05:53:36;;;;;;;12.90;8.50;;;16.10;99.90;;;;;;5042087;28;20224;-83
2023/09/29 05:56:08;;;;;;;10.63;8.67;;;16.10;99.90;;;;;;5026284;28;20231;-81
2023/09/29 05:58:35;;;;;;;11.87;9.47;;;16.20;99.90;;;;;;5042934;28;20216;-81
2023/09/29 06:01:09;;;;;;;10.03;8.90;;;16.20;99.90;;;;;;5035437;28;20308;-82
2023/09/29 06:03:36;;;;;;;10.53;8.97;;;16.20;99.90;;;;;;5035217;28;20791;-81
2023/09/29 06:06:03;;;;;;;11.50;8.67;;;16.20;99.90;;;;;;5037219;28;20227;-82
2023/09/29 06:08:30;;;;;;;14.27;8.53;;;16.20;99.90;;;;;;5019622;28;20217;-82
2023/09/29 06:10:57;;;;;;;11.40;9.30;;;16.20;99.90;;;;;;5038623;28;20224;-83
2023/09/29 06:13:23;;;;;;;14.17;8.70;;;16.30;99.90;;;;;;5039912;28;20223;-81
2023/09/29 06:15:50;;;;;;;10.57;8.13;;;16.20;99.90;;;;;;5039986;28;20223;-81
2023/09/29 06:18:18;;;;;;;11.80;8.67;;;16.30;99.90;;;;;;5023165;28;20607;-82
2023/09/29 06:20:44;;;;;;;11.50;8.47;;;16.20;99.90;;;;;;5025090;28;20216;-82
2023/09/29 06:23:11;;;;;;;12.33;8.07;;;16.30;99.90;;;;;;5015012;28;20228;-82
2023/09/29 06:25:38;;;;;;;12.43;8.13;;;16.30;99.90;;;;;;5031952;28;20231;-82
2023/09/29 06:28:05;;;;;;;11.23;8.47;;;16.30;99.90;;;;;;5028699;28;20246;-82
2023/09/29 06:30:32;;;;;;;12.13;8.23;;;16.40;99.90;;;;;;5047230;28;20216;-83
2023/09/29 06:32:58;;;;;;;9.80;7.67;;;16.40;99.90;;;;;;5034909;28;20231;-80
2023/09/29 06:35:26;;;;;;;11.27;8.00;;;16.40;99.90;;;;;;5025409;28;20228;-80
2023/09/29 06:37:53;;;;;;;10.95;8.52;;;16.40;99.90;;;;;;5030686;28;20228;-82
2023/09/29 06:40:19;;;;;;;13.02;7.72;;;16.40;99.90;;;;;;5034104;28;20238;-80
2023/09/29 06:42:46;;;;;;;11.53;7.87;;;16.40;99.90;;;;;;5034720;28;20231;-81
2023/09/29 06:45:13;;;;;;;13.25;8.40;;;16.50;99.90;;;;;;5044119;28;20216;-80
2023/09/29 06:47:39;;;;;;;9.35;7.85;;;16.50;99.90;;;;;;5039444;28;20216;-80
2023/09/29 06:50:10;;;;;;;11.13;7.53;;;16.60;99.90;;;;;;5054477;28;21863;-79
2023/09/29 06:52:38;;;;;;;11.17;6.97;;;16.60;99.90;;;;;;5031666;28;20279;-81
2023/09/29 06:55:05;;;;;;;8.57;7.30;;;16.70;99.90;;;;;;5046631;28;20238;-81
2023/09/29 06:57:32;;;;;;;11.10;7.90;;;16.70;99.90;;;;;;5047342;28;20224;-82
2023/09/29 06:59:59;;;;;;;11.93;7.93;;;16.80;99.90;;;;;;5048049;28;20223;-80
2023/09/29 07:02:25;;;;;;;9.80;8.00;;;16.80;99.90;;;;;;5046787;28;20230;-81
2023/09/29 07:04:52;;;;;;;12.87;8.83;;;16.90;99.90;;;;;;5044800;28;20239;-80
2023/09/29 07:07:19;;;;;;;11.47;8.53;;;16.90;99.90;;;;;;5047337;28;20220;-80
2023/09/29 07:09:47;;;;;;;10.68;8.82;;;17.00;99.90;;;;;;5047146;28;20232;-81
2023/09/29 07:12:14;;;;;;;10.83;8.77;;;17.00;99.90;;;;;;5046723;28;21176;-81
2023/09/29 07:14:41;;;;;;;10.73;8.27;;;17.00;99.90;;;;;;5046341;28;20778;-80
2023/09/29 07:17:08;;;;;;;10.37;8.40;;;17.00;99.90;;;;;;5045868;28;20262;-81
2023/09/29 07:19:34;;;;;;;13.30;9.40;;;17.10;99.90;;;;;;5035512;28;20223;-80
2023/09/29 07:22:01;;;;;;;11.90;8.50;;;17.10;99.90;;;;;;5047415;28;20315;-80
2023/09/29 07:24:28;;;;;;;14.40;9.02;;;17.10;99.90;;;;;;5027147;28;20311;-80
2023/09/29 07:26:56;;;;;;;13.73;8.40;;;17.20;99.90;;;;;;5038815;28;20767;-81
2023/09/29 07:29:22;;;;;;;11.73;8.02;;;17.20;99.90;;;;;;5036767;28;20885;-81
2023/09/29 07:31:49;;;;;;;10.10;8.20;;;17.20;99.90;;;;;;5030108;28;20303;-81
2023/09/29 07:34:16;;;;;;;10.63;7.83;;;17.30;99.90;;;;;;5030143;28;21140;-80
2023/09/29 07:36:44;;;;;;;15.33;8.50;;;17.30;99.90;;;;;;5031439;28;20808;-80
2023/09/29 07:39:13;;;;;;;12.00;7.93;;;17.30;99.90;;;;;;5047311;28;20436;-80
2023/09/29 07:41:40;;;;;;;11.47;8.10;;;17.40;99.90;;;;;;5048103;28;20219;-81
2023/09/29 07:44:09;;;;;;;11.50;8.37;;;17.50;99.90;;;;;;5037990;28;20220;-80
2023/09/29 07:46:36;;;;;;;9.57;7.70;;;17.60;99.90;;;;;;5035336;28;20220;-81
2023/09/29 07:49:03;;;;;;;10.82;7.45;;;17.60;99.90;;;;;;5036900;28;20216;-80
2023/09/29 07:51:30;;;;;;;12.73;8.82;;;17.70;99.90;;;;;;5035671;28;20240;-80
2023/09/29 07:53:56;;;;;;;9.77;8.60;;;17.80;99.90;;;;;;5048643;28;21225;-81
2023/09/29 07:56:23;;;;;;;11.93;8.30;;;17.80;99.90;;;;;;5046298;28;20228;-80
2023/09/29 07:58:50;;;;;;;10.52;8.10;;;17.90;99.90;;;;;;5046971;28;20226;-81
2023/09/29 08:01:18;;;;;;;10.43;8.32;;;17.90;99.90;;;;;;5044605;28;20224;-81
2023/09/29 08:03:45;;;;;;;11.40;8.20;;;17.90;99.90;;;;;;5048348;28;20814;-81
2023/09/29 08:06:14;;;;;;;12.67;8.43;;;17.90;99.90;;;;;;5045511;28;20732;-80
2023/09/29 08:08:40;;;;;;;11.00;8.32;;;18.00;99.90;;;;;;5047552;28;20262;-80
2023/09/29 08:11:07;;;;;;;10.63;8.00;;;18.00;99.90;;;;;;5030286;28;20713;-80
2023/09/29 08:13:34;;;;;;;10.20;7.90;;;18.10;99.90;;;;;;5030809;28;20912;-81
2023/09/29 08:16:01;;;;;;;11.15;8.30;;;18.10;99.90;;;;;;5038593;28;20238;-81
2023/09/29 08:18:29;;;;;;;10.85;8.32;;;18.10;99.90;;;;;;5045014;28;20739;-80
2023/09/29 08:20:56;;;;;;;8.93;7.90;;;18.20;99.90;;;;;;5046295;28;20219;-81
2023/09/29 08:23:23;;;;;;;9.82;7.47;;;18.30;99.90;;;;;;5026396;28;20921;-80
2023/09/29 08:25:49;;;;;;;9.73;8.52;;;18.40;99.90;;;;;;5029845;28;20262;-81
2023/09/29 08:28:16;;;;;;;10.93;7.93;;;18.40;99.90;;;;;;5027770;28;20223;-80
2023/09/29 08:30:43;;;;;;;9.25;8.27;;;18.50;99.90;;;;;;5045908;28;20240;-80
2023/09/29 08:33:09;;;;;;;10.85;8.20;;;18.50;99.90;;;;;;5043816;28;20597;-81
2023/09/29 08:35:37;;;;;;;13.30;8.75;;;18.50;99.90;;;;;;5029518;28;20749;-81
2023/09/29 08:38:05;;;;;;;11.57;7.95;;;18.50;99.90;;;;;;5025967;28;20227;-81
2023/09/29 08:40:36;;;;;;;9.25;7.35;;;18.50;99.90;;;;;;5027339;28;20274;-81
2023/09/29 08:43:06;;;;;;;10.02;7.70;;;18.60;99.90;;;;;;5042141;28;20829;-81
2023/09/29 08:45:34;;;;;;;9.30;8.02;;;18.60;99.90;;;;;;5028356;28;20219;-80
2023/09/29 08:48:03;;;;;;;12.70;8.25;;;18.70;99.90;;;;;;5046499;28;20212;-81
2023/09/29 08:50:29;;;;;;;11.25;8.00;;;18.70;99.90;;;;;;5042084;28;20220;-81
2023/09/29 08:53:00;;;;;;;11.48;7.65;;;18.70;99.90;;;;;;5030293;28;20224;-80
2023/09/29 08:55:28;;;;;;;9.27;7.35;;;18.70;99.90;;;;;;5042743;28;20228;-81
2023/09/29 08:57:55;;;;;;;9.23;7.07;;;18.70;99.90;;;;;;5044799;28;20219;-80
2023/09/29 09:00:23;;;;;;;9.85;7.75;;;18.80;99.90;;;;;;5033983;28;20232;-81
2023/09/29 09:02:50;;;;;;;9.38;7.43;;;18.90;99.90;;;;;;5045018;28;20227;-80
2023/09/29 09:05:17;;;;;;;9.85;7.28;;;19.00;99.90;;;;;;5044657;28;20328;-80
2023/09/29 09:07:44;;;;;;;7.50;6.57;;;19.10;99.90;;;;;;5046695;28;20216;-80
2023/09/29 09:10:13;;;;;;;10.98;7.50;;;19.40;99.90;;;;;;5022516;28;20246;-80
2023/09/29 09:12:40;;;;;;;9.50;6.25;;;19.60;99.90;;;;;;5045056;28;20224;-81
2023/09/29 09:15:09;;;;;;;9.45;6.80;;;19.80;99.90;;;;;;5042223;28;20232;-81
2023/09/29 09:17:36;;;;;;;8.75;6.60;;;20.10;99.90;;;;;;5021361;28;20851;-81
2023/09/29 09:20:04;;;;;;;7.78;6.47;;;20.30;99.90;;;;;;5044234;28;20647;-81
2023/09/29 09:22:33;;;;;;;7.43;6.38;;;20.50;99.90;;;;;;5026020;28;20707;-81
2023/09/29 09:25:00;;;;;;;9.00;6.40;;;20.70;99.90;;;;;;5028831;28;20224;-81
2023/09/29 09:27:37;;;;;;;7.95;6.00;;;20.80;99.90;;;;;;5040164;28;20246;-81
2023/09/29 09:30:04;;;;;;;10.18;7.15;;;20.80;99.90;;;;;;5047620;28;20298;-80
2023/09/29 09:32:31;;;;;;;8.25;6.32;;;20.90;99.90;;;;;;5026707;28;20224;-80
2023/09/29 09:34:58;;;;;;;9.95;6.63;;;20.80;99.90;;;;;;5049709;28;20216;-81
2023/09/29 09:37:25;;;;;;;11.02;6.90;;;20.90;99.90;;;;;;5043143;28;20220;-81
2023/09/29 09:39:55;;;;;;;9.80;6.72;;;20.90;99.90;;;;;;5046981;28;20439;-81
2023/09/29 09:42:25;;;;;;;7.93;6.80;;;20.90;99.90;;;;;;5033117;28;20232;-81
2023/09/29 09:44:56;;;;;;;10.80;7.30;;;20.90;99.90;;;;;;5049543;28;20216;-81
2023/09/29 09:47:26;;;;;;;9.15;6.88;;;20.80;99.90;;;;;;5032138;28;20242;-81
2023/09/29 09:49:56;;;;;;;9.70;6.50;;;20.80;99.90;;;;;;5049589;28;20239;-81
2023/09/29 09:52:27;;;;;;;8.05;6.55;;;20.70;99.90;;;;;;5049065;28;20234;-81
2023/09/29 09:54:57;;;;;;;8.05;6.28;;;20.60;99.90;;;;;;5034021;28;20269;-81
2023/09/29 09:57:29;;;;;;;9.55;6.45;;;20.50;99.90;;;;;;5051090;28;20232;-81
2023/09/29 10:00:01;;;;;;;8.02;6.63;;;20.40;99.90;;;;;;5046877;28;20278;-81
2023/09/29 10:02:29;;;;;;;8.52;7.07;;;20.20;99.90;;;;;;5035314;28;20254;-81
2023/09/29 10:04:56;;;;;;;8.23;7.13;;;20.00;99.90;;;;;;5036639;28;20602;-81
2023/09/29 10:07:23;;;;;;;9.57;7.28;;;19.80;99.90;;;;;;5026459;28;20231;-81
2023/09/29 10:09:50;;;;;;;8.15;7.35;;;19.70;99.90;;;;;;5050245;28;20222;-81
2023/09/29 10:12:28;;;;;;;8.52;7.03;;;19.60;99.90;;;;;;5031750;28;20258;-80
2023/09/29 10:14:55;;;;;;;7.60;6.80;;;19.50;99.90;;;;;;5048773;28;20310;-81
2023/09/29 10:17:23;;;;;;;8.00;6.68;;;19.40;99.90;;;;;;5048305;28;20229;-80
2023/09/29 10:19:54;;;;;;;7.32;6.63;;;19.40;99.90;;;;;;5049728;28;20282;-80
2023/09/29 10:22:25;;;;;;;8.43;5.95;;;19.20;99.90;;;;;;5030082;28;20315;-81
2023/09/29 10:24:56;;;;;;;7.07;5.72;;;19.20;99.90;;;;;;5034556;28;20248;-81
2023/09/29 10:27:34;;;;;;;9.55;5.72;;;19.20;99.90;;;;;;5046657;28;20719;-82
2023/09/29 10:30:15;;;;;;;7.43;6.07;;;19.20;99.90;;;;;;5047161;28;20337;-82
2023/09/29 10:32:45;;;;;;;6.72;5.30;;;19.20;99.90;;;;;;5047520;28;20234;-81
2023/09/29 10:35:18;;;;;;;9.38;5.65;;;19.20;99.90;;;;;;5050562;28;20255;-82
2023/09/29 10:37:49;;;;;;;7.85;6.00;;;19.20;99.90;;;;;;5051219;28;20287;-82
2023/09/29 10:40:28;;;;;;;5.97;5.38;;;19.20;99.90;;;;;;5032699;28;20254;-81
2023/09/29 10:42:56;;;;;;;6.13;5.13;;;19.30;99.90;;;;;;5047509;28;20227;-81
2023/09/29 10:45:29;;;;;;;7.18;5.13;;;19.40;99.90;;;;;;5048820;28;20220;-81
2023/09/29 10:48:02;;;;;;;8.10;5.43;;;19.60;99.90;;;;;;5032272;28;20226;-82
2023/09/29 10:50:29;;;;;;;5.45;4.80;;;19.90;99.90;;;;;;5046750;28;20232;-80
2023/09/29 10:52:56;;;;;;;6.40;4.47;;;20.20;99.90;;;;;;5032736;28;20255;-82
2023/09/29 10:55:23;;;;;;;7.60;4.00;;;20.50;99.90;;;;;;5047543;28;20230;-81
2023/09/29 10:57:50;;;;;;;5.47;4.50;;;20.90;99.90;;;;;;5036255;28;20302;-82
2023/09/29 11:00:17;;;;;;;5.15;4.28;;;21.30;99.90;;;;;;5048222;28;20224;-82
2023/09/29 11:02:45;;;;;;;6.78;3.92;;;21.70;99.90;;;;;;5050484;28;20804;-82
2023/09/29 11:05:13;;;;;;;6.15;3.60;;;22.20;99.90;;;;;;5033893;28;20255;-83
2023/09/29 11:07:47;;;;;;;7.28;4.00;;;22.60;99.90;;;;;;5030034;28;20276;-83
2023/09/29 11:10:15;;;;;;;4.75;3.70;;;22.90;99.90;;;;;;5016846;28;20653;-82
2023/09/29 11:12:46;;;;;;;5.85;3.50;;;23.10;99.90;;;;;;5014715;28;20248;-82
2023/09/29 11:15:13;;;;;;;4.90;3.30;;;23.20;99.90;;;;;;5011494;28;20229;-82
2023/09/29 11:17:45;;;;;;;5.97;3.83;;;23.30;99.90;;;;;;5009740;28;20224;-82
2023/09/29 11:20:25;;;;;;;7.38;4.03;;;23.20;99.90;;;;;;5012807;28;20279;-82
2023/09/29 11:23:05;;;;;;;6.65;4.07;;;23.10;99.90;;;;;;5031204;28;20221;-82
2023/09/29 11:25:32;;;;;;;6.63;3.88;;;22.90;99.90;;;;;;5031474;28;20220;-83
2023/09/29 11:27:59;;;;;;;8.38;4.35;;;22.80;99.90;;;;;;5006966;28;20221;-82
2023/09/29 11:30:27;;;;;;;6.70;4.07;;;22.60;99.90;;;;;;5023728;28;20225;-81
2023/09/29 11:32:53;;;;;;;4.85;3.70;;;22.40;99.90;;;;;;5036992;28;20292;-81
2023/09/29 11:35:21;;;;;;;6.68;3.72;;;22.30;99.90;;;;;;5036326;28;20225;-83
2023/09/29 11:37:48;;;;;;;5.85;3.70;;;22.10;99.90;;;;;;5013797;28;20796;-83
2023/09/29 11:40:16;;;;;;;5.65;3.83;;;22.10;99.90;;;;;;5015368;28;20231;-82
2023/09/29 11:42:44;;;;;;;5.20;3.03;;;22.10;99.90;;;;;;5014466;28;20287;-81
2023/09/29 11:45:11;;;;;;;5.80;3.65;;;22.00;99.90;;;;;;5028819;28;20225;-82
2023/09/29 11:47:39;;;;;;;5.85;3.42;;;22.00;99.90;;;;;;5024814;28;20229;-82
2023/09/29 11:50:09;;;;;;;4.55;3.40;;;22.00;99.90;;;;;;5027216;28;20289;-82
2023/09/29 11:52:39;;;;;;;4.03;3.03;;;22.00;99.90;;;;;;5026841;28;20224;-83
2023/09/29 11:55:11;;;;;;;4.07;3.13;;;22.00;99.90;;;;;;5033079;28;20225;-82
2023/09/29 11:57:40;;;;;;;4.57;3.10;;;22.20;99.90;;;;;;5017404;28;20228;-82
2023/09/29 12:00:09;;;;;;;4.25;2.95;;;22.30;99.90;;;;;;5013235;28;20251;-81
2023/09/29 12:02:36;;;;;;;8.05;3.25;;;22.50;99.90;;;;;;5032023;28;20236;-81
2023/09/29 12:05:04;;;;;;;5.57;3.20;;;22.70;99.90;;;;;;5010239;28;20224;-81
2023/09/29 12:07:30;;;;;;;3.75;3.22;;;22.90;99.90;;;;;;5014620;28;20336;-82
2023/09/29 12:09:58;;;;;;;3.45;2.88;;;23.10;99.90;;;;;;5017264;28;20247;-83
2023/09/29 12:12:26;;;;;;;6.78;3.50;;;23.20;99.90;;;;;;5030275;28;20798;-81
2023/09/29 12:14:53;;;;;;;4.22;3.00;;;23.30;99.90;;;;;;5012307;28;20224;-83
2023/09/29 12:17:20;;;;;;;4.25;3.15;;;23.40;99.90;;;;;;5026743;23;20379;-94
2023/09/29 12:22:55;;;;;;;4.30;3.15;;;23.70;99.90;;;;;;5067534;28;20192;-96
2023/09/29 12:25:23;;;;;;;4.47;2.65;;;23.80;99.90;;;;;;5049695;28;20208;-96
2023/09/29 12:27:50;;;;;;;5.45;3.05;;;23.90;99.90;;;;;;5053116;28;20246;-95
2023/09/29 12:30:25;;;;;;;5.30;2.88;;;23.80;99.90;;;;;;5052093;28;20218;-94
2023/09/29 12:32:52;;;;;;;5.32;2.72;;;23.90;99.90;;;;;;5049499;28;20223;-95
2023/09/29 12:35:18;;;;;;;3.30;2.97;;;24.00;99.90;;;;;;5042734;28;20303;-93
2023/09/29 12:37:46;;;;;;;3.90;2.80;;;24.00;99.90;;;;;;5053116;22;20274;-84
2023/09/29 12:40:16;;;;;;;3.97;2.72;;;24.10;99.90;;;;;;5048037;28;20289;-84
2023/09/29 12:42:47;;;;;;;6.20;3.05;;;24.20;99.90;;;;;;5046921;28;20720;-84
2023/09/29 12:45:13;;;;;;;8.50;2.97;;;24.20;99.90;;;;;;5046991;28;20247;-83
2023/09/29 12:47:41;;;;;;;2.95;2.45;;;24.30;99.90;;;;;;5045841;28;20232;-84
2023/09/29 12:50:08;;;;;;;6.50;2.97;;;24.40;99.90;;;;;;5030201;28;20306;-84